Decoded Metar for KPDT (PENDLETON in OR, USA) (IATA:PDT) | Meteo·Mobile Aviation Weather
aviador You're here:

KPDT Decoded Metar

PENDLETON in OR, USA
Report Time2018-12-18 15:53:00
UTC Time2018-12-18 16:49:40
Flight Rules vfr VFR
Wind200° at 25 Gusting to 35 kt
W.Decomp.*RWY 16: 22.8 kt HW 10.2 kt RCW
RWY 25: 10.2 kt HW 22.8 kt LCW
RWY 11: 6.9 kt HW 24.0 kt RCW
W.Rank200° ranks 20
Current wind is above 200° avg. (7.3)
Visibility9999 m
Phenomena:N/A
Clouds:Broken 080 Hf
Overcast 100 Hf
Expected CloudBase > 3,600 ft AGL from Temp-Dew spread
Ceiling8,000 ft
Temp12°C (ISA 0)
Dew Point03°C (54% RH)
AAT1.5°C
QNH1005 hPa
Density Alt1,896 ft
Elevation1,516 ft
Report Wrong Elevation
Raw Report
KPDT 181553Z 20025G35KT 10SM BKN080 OVC100 12/03 A2969 RMK AO2 PK
WND 20035/1550 RAE1457B15E25 SLP048 P0000 T01220033=

Extra information for KPDT:More info

Metar Taf Metar & Taf Last 4 Metars F.Rules Stats Wind Profile Meteogram Temp Stats Airport Information Weather charts Add Link Nearby VenuesMetar ALERT Operation Metar Decoded Social comments

AIRNAV info for KPDT